sensor_id;sensor_type;location;lat;lon;timestamp;P1;durP1;ratioP1;P2;durP2;ratioP2
7116;SDS011;3600;48.568;7.870;2023-06-19T00:02:16;8.48;;;6.07;;
7116;SDS011;3600;48.568;7.870;2023-06-19T00:04:43;9.68;;;6.65;;
7116;SDS011;3600;48.568;7.870;2023-06-19T00:07:13;6.70;;;6.10;;
7116;SDS011;3600;48.568;7.870;2023-06-19T00:09:40;7.88;;;6.20;;
7116;SDS011;3600;48.568;7.870;2023-06-19T00:12:07;8.00;;;6.68;;
7116;SDS011;3600;48.568;7.870;2023-06-19T00:14:34;7.00;;;6.20;;
7116;SDS011;3600;48.568;7.870;2023-06-19T00:17:02;6.55;;;5.93;;
7116;SDS011;3600;48.568;7.870;2023-06-19T00:19:29;8.00;;;6.90;;
7116;SDS011;3600;48.568;7.870;2023-06-19T00:21:56;6.93;;;5.97;;
7116;SDS011;3600;48.568;7.870;2023-06-19T00:24:23;7.07;;;6.03;;
7116;SDS011;3600;48.568;7.870;2023-06-19T00:26:50;7.97;;;5.63;;
7116;SDS011;3600;48.568;7.870;2023-06-19T00:29:17;6.70;;;6.10;;
7116;SDS011;3600;48.568;7.870;2023-06-19T00:31:44;5.80;;;5.30;;
7116;SDS011;3600;48.568;7.870;2023-06-19T00:34:10;6.47;;;5.82;;
7116;SDS011;3600;48.568;7.870;2023-06-19T00:36:37;6.93;;;6.22;;
7116;SDS011;3600;48.568;7.870;2023-06-19T00:39:07;7.50;;;5.47;;
7116;SDS011;3600;48.568;7.870;2023-06-19T00:41:35;5.80;;;5.28;;
7116;SDS011;3600;48.568;7.870;2023-06-19T00:44:02;6.20;;;5.60;;
7116;SDS011;3600;48.568;7.870;2023-06-19T00:46:29;8.80;;;5.90;;
7116;SDS011;3600;48.568;7.870;2023-06-19T00:48:56;5.75;;;5.25;;
7116;SDS011;3600;48.568;7.870;2023-06-19T00:51:24;6.57;;;5.97;;
7116;SDS011;3600;48.568;7.870;2023-06-19T00:53:50;6.72;;;6.13;;
7116;SDS011;3600;48.568;7.870;2023-06-19T00:56:18;6.03;;;5.53;;
7116;SDS011;3600;48.568;7.870;2023-06-19T00:58:45;6.25;;;5.63;;
7116;SDS011;3600;48.568;7.870;2023-06-19T01:01:12;6.97;;;5.75;;
7116;SDS011;3600;48.568;7.870;2023-06-19T01:03:39;7.90;;;6.65;;
7116;SDS011;3600;48.568;7.870;2023-06-19T01:06:10;6.95;;;6.22;;
7116;SDS011;3600;48.568;7.870;2023-06-19T01:08:43;8.75;;;6.00;;
7116;SDS011;3600;48.568;7.870;2023-06-19T01:11:19;8.02;;;6.38;;
7116;SDS011;3600;48.568;7.870;2023-06-19T01:13:58;7.75;;;6.88;;
7116;SDS011;3600;48.568;7.870;2023-06-19T01:16:27;7.22;;;6.53;;
7116;SDS011;3600;48.568;7.870;2023-06-19T01:18:56;8.43;;;6.78;;
7116;SDS011;3600;48.568;7.870;2023-06-19T01:21:23;12.40;;;7.10;;
7116;SDS011;3600;48.568;7.870;2023-06-19T01:23:50;9.23;;;7.00;;
7116;SDS011;3600;48.568;7.870;2023-06-19T01:26:17;7.65;;;6.60;;
7116;SDS011;3600;48.568;7.870;2023-06-19T01:28:44;7.80;;;7.00;;
7116;SDS011;3600;48.568;7.870;2023-06-19T01:31:13;6.88;;;6.18;;
7116;SDS011;3600;48.568;7.870;2023-06-19T01:33:45;6.18;;;5.68;;
7116;SDS011;3600;48.568;7.870;2023-06-19T01:36:13;6.22;;;5.72;;
7116;SDS011;3600;48.568;7.870;2023-06-19T01:38:41;5.20;;;4.75;;
7116;SDS011;3600;48.568;7.870;2023-06-19T01:41:10;5.53;;;4.85;;
7116;SDS011;3600;48.568;7.870;2023-06-19T01:43:37;7.53;;;4.97;;
7116;SDS011;3600;48.568;7.870;2023-06-19T01:46:05;5.57;;;5.07;;
7116;SDS011;3600;48.568;7.870;2023-06-19T01:48:32;5.20;;;4.25;;
7116;SDS011;3600;48.568;7.870;2023-06-19T01:51:01;4.78;;;4.32;;
7116;SDS011;3600;48.568;7.870;2023-06-19T01:53:30;4.78;;;4.28;;
7116;SDS011;3600;48.568;7.870;2023-06-19T01:55:58;4.63;;;4.22;;
7116;SDS011;3600;48.568;7.870;2023-06-19T01:58:25;5.65;;;4.00;;
7116;SDS011;3600;48.568;7.870;2023-06-19T02:00:52;4.68;;;4.20;;
7116;SDS011;3600;48.568;7.870;2023-06-19T02:03:18;5.47;;;4.30;;
7116;SDS011;3600;48.568;7.870;2023-06-19T02:05:45;4.82;;;4.40;;
7116;SDS011;3600;48.568;7.870;2023-06-19T02:08:12;4.65;;;4.25;;
7116;SDS011;3600;48.568;7.870;2023-06-19T02:10:39;4.45;;;4.13;;
7116;SDS011;3600;48.568;7.870;2023-06-19T02:13:06;4.30;;;4.00;;
7116;SDS011;3600;48.568;7.870;2023-06-19T02:15:33;5.10;;;4.15;;
7116;SDS011;3600;48.568;7.870;2023-06-19T02:18:00;5.30;;;4.50;;
7116;SDS011;3600;48.568;7.870;2023-06-19T02:20:27;6.47;;;4.97;;
7116;SDS011;3600;48.568;7.870;2023-06-19T02:22:54;5.28;;;4.78;;
7116;SDS011;3600;48.568;7.870;2023-06-19T02:25:21;5.55;;;5.03;;
7116;SDS011;3600;48.568;7.870;2023-06-19T02:27:47;6.43;;;5.50;;
7116;SDS011;3600;48.568;7.870;2023-06-19T02:30:14;5.97;;;4.72;;
7116;SDS011;3600;48.568;7.870;2023-06-19T02:32:41;4.97;;;4.57;;
7116;SDS011;3600;48.568;7.870;2023-06-19T02:35:09;5.22;;;4.72;;
7116;SDS011;3600;48.568;7.870;2023-06-19T02:37:37;6.03;;;5.45;;
7116;SDS011;3600;48.568;7.870;2023-06-19T02:40:04;6.93;;;5.40;;
7116;SDS011;3600;48.568;7.870;2023-06-19T02:42:32;5.10;;;4.70;;
7116;SDS011;3600;48.568;7.870;2023-06-19T02:44:59;6.75;;;5.43;;
7116;SDS011;3600;48.568;7.870;2023-06-19T02:47:29;5.30;;;4.80;;
7116;SDS011;3600;48.568;7.870;2023-06-19T02:50:01;5.32;;;4.88;;
7116;SDS011;3600;48.568;7.870;2023-06-19T02:52:29;5.15;;;4.63;;
7116;SDS011;3600;48.568;7.870;2023-06-19T02:54:56;5.88;;;4.78;;
7116;SDS011;3600;48.568;7.870;2023-06-19T02:57:23;5.88;;;4.72;;
7116;SDS011;3600;48.568;7.870;2023-06-19T02:59:50;5.25;;;4.72;;
7116;SDS011;3600;48.568;7.870;2023-06-19T03:02:17;5.53;;;5.03;;
7116;SDS011;3600;48.568;7.870;2023-06-19T03:04:44;5.25;;;4.65;;
7116;SDS011;3600;48.568;7.870;2023-06-19T03:07:11;5.28;;;4.78;;
7116;SDS011;3600;48.568;7.870;2023-06-19T03:09:40;5.97;;;5.43;;
7116;SDS011;3600;48.568;7.870;2023-06-19T03:12:07;5.65;;;5.15;;
7116;SDS011;3600;48.568;7.870;2023-06-19T03:14:35;5.32;;;4.82;;
7116;SDS011;3600;48.568;7.870;2023-06-19T03:17:01;5.68;;;5.18;;
7116;SDS011;3600;48.568;7.870;2023-06-19T03:19:29;5.32;;;4.93;;
7116;SDS011;3600;48.568;7.870;2023-06-19T03:21:55;5.75;;;5.25;;
7116;SDS011;3600;48.568;7.870;2023-06-19T03:24:22;5.50;;;5.10;;
7116;SDS011;3600;48.568;7.870;2023-06-19T03:26:49;5.10;;;4.68;;
7116;SDS011;3600;48.568;7.870;2023-06-19T03:29:16;5.50;;;4.80;;
7116;SDS011;3600;48.568;7.870;2023-06-19T03:31:42;5.43;;;5.03;;
7116;SDS011;3600;48.568;7.870;2023-06-19T03:34:09;5.80;;;5.30;;
7116;SDS011;3600;48.568;7.870;2023-06-19T03:36:36;7.47;;;5.10;;
7116;SDS011;3600;48.568;7.870;2023-06-19T03:39:03;4.72;;;4.32;;
7116;SDS011;3600;48.568;7.870;2023-06-19T03:41:29;6.25;;;4.95;;
7116;SDS011;3600;48.568;7.870;2023-06-19T03:43:56;6.25;;;5.35;;
7116;SDS011;3600;48.568;7.870;2023-06-19T03:46:23;5.55;;;5.13;;
7116;SDS011;3600;48.568;7.870;2023-06-19T03:48:50;5.60;;;5.10;;
7116;SDS011;3600;48.568;7.870;2023-06-19T03:51:17;6.85;;;5.10;;
7116;SDS011;3600;48.568;7.870;2023-06-19T03:53:44;5.80;;;5.25;;
7116;SDS011;3600;48.568;7.870;2023-06-19T03:56:10;5.07;;;4.60;;
7116;SDS011;3600;48.568;7.870;2023-06-19T03:58:37;4.88;;;4.57;;
7116;SDS011;3600;48.568;7.870;2023-06-19T04:01:04;8.15;;;5.25;;
7116;SDS011;3600;48.568;7.870;2023-06-19T04:03:32;5.45;;;4.65;;
7116;SDS011;3600;48.568;7.870;2023-06-19T04:05:59;5.43;;;4.97;;
7116;SDS011;3600;48.568;7.870;2023-06-19T04:08:25;5.45;;;5.00;;
7116;SDS011;3600;48.568;7.870;2023-06-19T04:10:52;5.47;;;5.07;;
7116;SDS011;3600;48.568;7.870;2023-06-19T04:13:19;5.97;;;5.22;;
7116;SDS011;3600;48.568;7.870;2023-06-19T04:15:46;5.97;;;4.80;;
7116;SDS011;3600;48.568;7.870;2023-06-19T04:18:16;5.90;;;4.60;;
7116;SDS011;3600;48.568;7.870;2023-06-19T04:20:43;5.88;;;4.55;;
7116;SDS011;3600;48.568;7.870;2023-06-19T04:23:10;4.95;;;4.55;;
7116;SDS011;3600;48.568;7.870;2023-06-19T04:25:37;4.60;;;4.20;;
7116;SDS011;3600;48.568;7.870;2023-06-19T04:28:03;5.25;;;4.20;;
7116;SDS011;3600;48.568;7.870;2023-06-19T04:30:30;5.03;;;4.20;;
7116;SDS011;3600;48.568;7.870;2023-06-19T04:32:57;6.18;;;3.78;;
7116;SDS011;3600;48.568;7.870;2023-06-19T04:35:24;4.82;;;4.18;;
7116;SDS011;3600;48.568;7.870;2023-06-19T04:37:52;6.50;;;4.10;;
7116;SDS011;3600;48.568;7.870;2023-06-19T04:40:20;3.72;;;3.42;;
7116;SDS011;3600;48.568;7.870;2023-06-19T04:42:47;3.60;;;3.30;;
7116;SDS011;3600;48.568;7.870;2023-06-19T04:45:13;4.20;;;3.63;;
7116;SDS011;3600;48.568;7.870;2023-06-19T04:47:40;5.68;;;3.88;;
7116;SDS011;3600;48.568;7.870;2023-06-19T04:50:18;4.43;;;4.07;;
7116;SDS011;3600;48.568;7.870;2023-06-19T04:52:46;5.82;;;4.35;;
7116;SDS011;3600;48.568;7.870;2023-06-19T04:55:13;4.43;;;4.03;;
7116;SDS011;3600;48.568;7.870;2023-06-19T04:57:40;3.90;;;3.60;;
7116;SDS011;3600;48.568;7.870;2023-06-19T05:00:07;4.43;;;4.03;;
7116;SDS011;3600;48.568;7.870;2023-06-19T05:02:36;4.13;;;3.75;;
7116;SDS011;3600;48.568;7.870;2023-06-19T05:05:05;5.53;;;3.80;;
7116;SDS011;3600;48.568;7.870;2023-06-19T05:07:35;4.10;;;3.70;;
7116;SDS011;3600;48.568;7.870;2023-06-19T05:10:01;4.00;;;3.70;;
7116;SDS011;3600;48.568;7.870;2023-06-19T05:12:28;3.95;;;3.65;;
7116;SDS011;3600;48.568;7.870;2023-06-19T05:14:55;3.60;;;3.38;;
7116;SDS011;3600;48.568;7.870;2023-06-19T05:17:22;3.97;;;3.67;;
7116;SDS011;3600;48.568;7.870;2023-06-19T05:19:49;4.28;;;3.88;;
7116;SDS011;3600;48.568;7.870;2023-06-19T05:22:16;5.07;;;3.90;;
7116;SDS011;3600;48.568;7.870;2023-06-19T05:24:45;4.60;;;4.03;;
7116;SDS011;3600;48.568;7.870;2023-06-19T05:27:12;3.95;;;3.63;;
7116;SDS011;3600;48.568;7.870;2023-06-19T05:29:38;4.75;;;4.35;;
7116;SDS011;3600;48.568;7.870;2023-06-19T05:32:05;4.18;;;3.88;;
7116;SDS011;3600;48.568;7.870;2023-06-19T05:34:32;4.45;;;3.95;;
7116;SDS011;3600;48.568;7.870;2023-06-19T05:36:59;4.35;;;4.05;;
7116;SDS011;3600;48.568;7.870;2023-06-19T05:39:29;6.10;;;4.22;;
7116;SDS011;3600;48.568;7.870;2023-06-19T05:41:56;7.57;;;6.80;;
7116;SDS011;3600;48.568;7.870;2023-06-19T05:44:23;5.35;;;4.85;;
7116;SDS011;3600;48.568;7.870;2023-06-19T05:46:50;5.35;;;3.63;;
7116;SDS011;3600;48.568;7.870;2023-06-19T05:49:17;4.45;;;4.05;;
7116;SDS011;3600;48.568;7.870;2023-06-19T05:51:43;5.50;;;3.85;;
7116;SDS011;3600;48.568;7.870;2023-06-19T05:54:10;4.13;;;3.83;;
7116;SDS011;3600;48.568;7.870;2023-06-19T05:56:37;6.65;;;4.00;;
7116;SDS011;3600;48.568;7.870;2023-06-19T05:59:04;5.07;;;3.83;;
7116;SDS011;3600;48.568;7.870;2023-06-19T06:01:31;4.45;;;4.05;;
7116;SDS011;3600;48.568;7.870;2023-06-19T06:03:58;4.13;;;3.80;;
7116;SDS011;3600;48.568;7.870;2023-06-19T06:06:25;4.72;;;4.00;;
7116;SDS011;3600;48.568;7.870;2023-06-19T06:08:52;5.80;;;4.07;;
7116;SDS011;3600;48.568;7.870;2023-06-19T06:11:19;5.88;;;3.78;;
7116;SDS011;3600;48.568;7.870;2023-06-19T06:13:46;5.55;;;3.85;;
7116;SDS011;3600;48.568;7.870;2023-06-19T06:16:12;4.95;;;3.83;;
7116;SDS011;3600;48.568;7.870;2023-06-19T06:18:40;4.13;;;3.72;;
7116;SDS011;3600;48.568;7.870;2023-06-19T06:21:07;4.10;;;3.80;;
7116;SDS011;3600;48.568;7.870;2023-06-19T06:23:34;4.40;;;4.10;;
7116;SDS011;3600;48.568;7.870;2023-06-19T06:26:01;4.70;;;4.20;;
7116;SDS011;3600;48.568;7.870;2023-06-19T06:28:29;4.70;;;4.30;;
7116;SDS011;3600;48.568;7.870;2023-06-19T06:30:57;4.60;;;4.30;;
7116;SDS011;3600;48.568;7.870;2023-06-19T06:33:24;4.50;;;4.10;;
7116;SDS011;3600;48.568;7.870;2023-06-19T06:35:51;4.15;;;3.85;;
7116;SDS011;3600;48.568;7.870;2023-06-19T06:38:18;5.43;;;3.90;;
7116;SDS011;3600;48.568;7.870;2023-06-19T06:40:44;4.43;;;4.03;;
7116;SDS011;3600;48.568;7.870;2023-06-19T06:43:12;4.93;;;4.53;;
7116;SDS011;3600;48.568;7.870;2023-06-19T06:45:38;4.20;;;3.90;;
7116;SDS011;3600;48.568;7.870;2023-06-19T06:48:08;4.47;;;4.07;;
7116;SDS011;3600;48.568;7.870;2023-06-19T06:50:34;4.57;;;4.20;;
7116;SDS011;3600;48.568;7.870;2023-06-19T06:53:02;5.60;;;4.63;;
7116;SDS011;3600;48.568;7.870;2023-06-19T06:55:29;4.82;;;4.10;;
7116;SDS011;3600;48.568;7.870;2023-06-19T06:57:55;4.85;;;4.45;;
7116;SDS011;3600;48.568;7.870;2023-06-19T07:00:22;5.15;;;4.65;;
7116;SDS011;3600;48.568;7.870;2023-06-19T07:02:49;4.80;;;4.28;;
7116;SDS011;3600;48.568;7.870;2023-06-19T07:05:17;4.70;;;4.30;;
7116;SDS011;3600;48.568;7.870;2023-06-19T07:07:44;4.55;;;4.10;;
7116;SDS011;3600;48.568;7.870;2023-06-19T07:10:11;5.32;;;3.92;;
7116;SDS011;3600;48.568;7.870;2023-06-19T07:12:45;5.82;;;4.35;;
7116;SDS011;3600;48.568;7.870;2023-06-19T07:15:13;4.70;;;4.35;;
7116;SDS011;3600;48.568;7.870;2023-06-19T07:17:40;4.30;;;4.00;;
7116;SDS011;3600;48.568;7.870;2023-06-19T07:20:07;5.32;;;4.40;;
7116;SDS011;3600;48.568;7.870;2023-06-19T07:22:34;4.22;;;3.90;;
7116;SDS011;3600;48.568;7.870;2023-06-19T07:25:01;5.78;;;5.22;;
7116;SDS011;3600;48.568;7.870;2023-06-19T07:27:30;4.50;;;4.10;;
7116;SDS011;3600;48.568;7.870;2023-06-19T07:29:57;5.30;;;4.85;;
7116;SDS011;3600;48.568;7.870;2023-06-19T07:32:24;5.15;;;4.30;;
7116;SDS011;3600;48.568;7.870;2023-06-19T07:34:51;4.82;;;4.38;;
7116;SDS011;3600;48.568;7.870;2023-06-19T07:37:18;3.95;;;3.65;;
7116;SDS011;3600;48.568;7.870;2023-06-19T07:39:45;4.40;;;4.00;;
7116;SDS011;3600;48.568;7.870;2023-06-19T07:42:13;4.45;;;4.00;;
7116;SDS011;3600;48.568;7.870;2023-06-19T07:44:40;5.60;;;4.55;;
7116;SDS011;3600;48.568;7.870;2023-06-19T07:47:08;4.57;;;4.20;;
7116;SDS011;3600;48.568;7.870;2023-06-19T07:49:35;5.22;;;4.03;;
7116;SDS011;3600;48.568;7.870;2023-06-19T07:52:02;5.03;;;4.63;;
7116;SDS011;3600;48.568;7.870;2023-06-19T07:54:30;4.50;;;4.05;;
7116;SDS011;3600;48.568;7.870;2023-06-19T07:56:57;4.47;;;4.07;;
7116;SDS011;3600;48.568;7.870;2023-06-19T07:59:24;5.78;;;3.83;;
7116;SDS011;3600;48.568;7.870;2023-06-19T08:01:50;4.55;;;4.15;;
7116;SDS011;3600;48.568;7.870;2023-06-19T08:04:17;5.00;;;4.60;;
7116;SDS011;3600;48.568;7.870;2023-06-19T08:06:44;4.65;;;4.25;;
7116;SDS011;3600;48.568;7.870;2023-06-19T08:09:11;4.20;;;3.90;;
7116;SDS011;3600;48.568;7.870;2023-06-19T08:11:37;4.38;;;4.00;;
7116;SDS011;3600;48.568;7.870;2023-06-19T08:14:04;4.22;;;3.42;;
7116;SDS011;3600;48.568;7.870;2023-06-19T08:16:31;7.05;;;4.18;;
7116;SDS011;3600;48.568;7.870;2023-06-19T08:18:58;4.03;;;3.72;;
7116;SDS011;3600;48.568;7.870;2023-06-19T08:21:25;4.07;;;3.78;;
7116;SDS011;3600;48.568;7.870;2023-06-19T08:23:52;4.40;;;4.00;;
7116;SDS011;3600;48.568;7.870;2023-06-19T08:26:18;4.20;;;3.80;;
7116;SDS011;3600;48.568;7.870;2023-06-19T08:28:46;3.67;;;3.38;;
7116;SDS011;3600;48.568;7.870;2023-06-19T08:31:14;4.40;;;4.10;;
7116;SDS011;3600;48.568;7.870;2023-06-19T08:33:41;5.00;;;3.85;;
7116;SDS011;3600;48.568;7.870;2023-06-19T08:36:08;4.82;;;4.07;;
7116;SDS011;3600;48.568;7.870;2023-06-19T08:38:34;4.47;;;4.07;;
7116;SDS011;3600;48.568;7.870;2023-06-19T08:41:01;4.47;;;4.05;;
7116;SDS011;3600;48.568;7.870;2023-06-19T08:43:28;3.42;;;3.22;;
7116;SDS011;3600;48.568;7.870;2023-06-19T08:46:06;4.50;;;4.10;;
7116;SDS011;3600;48.568;7.870;2023-06-19T08:48:36;3.58;;;3.30;;
7116;SDS011;3600;48.568;7.870;2023-06-19T08:51:03;4.93;;;4.20;;
7116;SDS011;3600;48.568;7.870;2023-06-19T08:53:34;5.40;;;4.57;;
7116;SDS011;3600;48.568;7.870;2023-06-19T08:56:02;4.40;;;4.00;;
7116;SDS011;3600;48.568;7.870;2023-06-19T08:58:30;4.75;;;4.20;;
7116;SDS011;3600;48.568;7.870;2023-06-19T09:00:59;4.40;;;4.10;;
7116;SDS011;3600;48.568;7.870;2023-06-19T09:03:26;4.28;;;3.90;;
7116;SDS011;3600;48.568;7.870;2023-06-19T09:05:53;3.88;;;3.55;;
7116;SDS011;3600;48.568;7.870;2023-06-19T09:08:21;8.45;;;4.43;;
7116;SDS011;3600;48.568;7.870;2023-06-19T09:10:58;4.60;;;4.13;;
7116;SDS011;3600;48.568;7.870;2023-06-19T09:13:26;4.20;;;3.90;;
7116;SDS011;3600;48.568;7.870;2023-06-19T09:16:03;4.88;;;4.47;;
7116;SDS011;3600;48.568;7.870;2023-06-19T09:18:32;4.10;;;3.80;;
7116;SDS011;3600;48.568;7.870;2023-06-19T09:21:18;3.97;;;3.67;;
7116;SDS011;3600;48.568;7.870;2023-06-19T09:23:48;3.90;;;3.60;;
7116;SDS011;3600;48.568;7.870;2023-06-19T09:26:18;4.32;;;4.03;;
7116;SDS011;3600;48.568;7.870;2023-06-19T09:28:46;4.50;;;3.88;;
7116;SDS011;3600;48.568;7.870;2023-06-19T09:31:13;4.20;;;3.90;;
7116;SDS011;3600;48.568;7.870;2023-06-19T09:33:39;7.90;;;4.30;;
7116;SDS011;3600;48.568;7.870;2023-06-19T09:36:07;3.85;;;3.40;;
7116;SDS011;3600;48.568;7.870;2023-06-19T09:38:36;4.47;;;4.07;;
7116;SDS011;3600;48.568;7.870;2023-06-19T09:41:05;4.05;;;3.75;;
7116;SDS011;3600;48.568;7.870;2023-06-19T09:43:36;3.85;;;3.55;;
7116;SDS011;3600;48.568;7.870;2023-06-19T09:46:10;4.13;;;3.83;;
7116;SDS011;3600;48.568;7.870;2023-06-19T09:48:41;3.90;;;3.60;;
7116;SDS011;3600;48.568;7.870;2023-06-19T09:51:10;4.43;;;4.05;;
7116;SDS011;3600;48.568;7.870;2023-06-19T09:53:41;4.00;;;3.70;;
7116;SDS011;3600;48.568;7.870;2023-06-19T09:56:11;5.60;;;4.40;;
7116;SDS011;3600;48.568;7.870;2023-06-19T09:58:39;7.25;;;4.57;;
7116;SDS011;3600;48.568;7.870;2023-06-19T10:01:08;4.65;;;4.35;;
7116;SDS011;3600;48.568;7.870;2023-06-19T10:03:36;4.35;;;3.95;;
7116;SDS011;3600;48.568;7.870;2023-06-19T10:06:03;4.05;;;3.72;;
7116;SDS011;3600;48.568;7.870;2023-06-19T10:08:32;3.90;;;3.60;;
7116;SDS011;3600;48.568;7.870;2023-06-19T10:11:05;5.07;;;4.68;;
7116;SDS011;3600;48.568;7.870;2023-06-19T10:13:33;4.72;;;4.32;;
7116;SDS011;3600;48.568;7.870;2023-06-19T10:16:02;4.80;;;4.40;;
7116;SDS011;3600;48.568;7.870;2023-06-19T10:18:31;5.43;;;4.43;;
7116;SDS011;3600;48.568;7.870;2023-06-19T10:20:59;4.43;;;4.03;;
7116;SDS011;3600;48.568;7.870;2023-06-19T10:23:26;4.15;;;3.85;;
7116;SDS011;3600;48.568;7.870;2023-06-19T10:25:59;4.88;;;4.10;;
7116;SDS011;3600;48.568;7.870;2023-06-19T10:28:29;4.97;;;4.57;;
7116;SDS011;3600;48.568;7.870;2023-06-19T10:33:30;4.93;;;4.35;;
7116;SDS011;3600;48.568;7.870;2023-06-19T10:35:59;4.28;;;3.97;;
7116;SDS011;3600;48.568;7.870;2023-06-19T10:38:28;4.72;;;4.40;;
7116;SDS011;3600;48.568;7.870;2023-06-19T10:40:55;5.65;;;3.65;;
7116;SDS011;3600;48.568;7.870;2023-06-19T10:43:23;4.55;;;4.20;;
7116;SDS011;3600;48.568;7.870;2023-06-19T10:45:58;4.28;;;3.97;;
7116;SDS011;3600;48.568;7.870;2023-06-19T10:48:28;4.00;;;3.70;;
7116;SDS011;3600;48.568;7.870;2023-06-19T10:50:55;4.32;;;3.92;;
7116;SDS011;3600;48.568;7.870;2023-06-19T10:53:30;4.63;;;4.22;;
7116;SDS011;3600;48.568;7.870;2023-06-19T10:55:58;4.80;;;4.18;;
7116;SDS011;3600;48.568;7.870;2023-06-19T10:58:27;4.18;;;3.88;;
7116;SDS011;3600;48.568;7.870;2023-06-19T11:00:55;3.97;;;3.67;;
7116;SDS011;3600;48.568;7.870;2023-06-19T11:03:23;4.13;;;3.83;;
7116;SDS011;3600;48.568;7.870;2023-06-19T11:05:50;4.05;;;3.75;;
7116;SDS011;3600;48.568;7.870;2023-06-19T11:08:17;4.30;;;4.00;;
7116;SDS011;3600;48.568;7.870;2023-06-19T11:10:45;3.47;;;3.25;;
7116;SDS011;3600;48.568;7.870;2023-06-19T11:13:13;3.72;;;3.42;;
7116;SDS011;3600;48.568;7.870;2023-06-19T11:15:42;4.82;;;3.55;;
7116;SDS011;3600;48.568;7.870;2023-06-19T11:18:09;3.58;;;3.33;;
7116;SDS011;3600;48.568;7.870;2023-06-19T11:23:17;4.15;;;3.85;;
7116;SDS011;3600;48.568;7.870;2023-06-19T11:25:54;4.07;;;3.78;;
7116;SDS011;3600;48.568;7.870;2023-06-19T11:28:28;3.95;;;3.58;;
7116;SDS011;3600;48.568;7.870;2023-06-19T11:31:02;3.88;;;3.58;;
7116;SDS011;3600;48.568;7.870;2023-06-19T11:33:29;3.28;;;3.08;;
7116;SDS011;3600;48.568;7.870;2023-06-19T11:35:59;3.75;;;3.45;;
7116;SDS011;3600;48.568;7.870;2023-06-19T11:38:27;3.45;;;3.15;;
7116;SDS011;3600;48.568;7.870;2023-06-19T11:40:54;3.90;;;3.60;;
7116;SDS011;3600;48.568;7.870;2023-06-19T11:45:52;3.38;;;3.17;;
7116;SDS011;3600;48.568;7.870;2023-06-19T11:48:25;3.63;;;3.20;;
7116;SDS011;3600;48.568;7.870;2023-06-19T11:50:53;3.00;;;2.80;;
7116;SDS011;3600;48.568;7.870;2023-06-19T11:53:21;3.00;;;2.80;;
7116;SDS011;3600;48.568;7.870;2023-06-19T11:55:49;3.60;;;3.30;;
7116;SDS011;3600;48.568;7.870;2023-06-19T11:58:16;3.30;;;3.10;;
7116;SDS011;3600;48.568;7.870;2023-06-19T12:00:43;3.50;;;3.20;;
7116;SDS011;3600;48.568;7.870;2023-06-19T12:03:10;3.15;;;2.95;;
7116;SDS011;3600;48.568;7.870;2023-06-19T12:05:38;3.80;;;3.50;;
7116;SDS011;3600;48.568;7.870;2023-06-19T12:08:05;3.33;;;2.80;;
7116;SDS011;3600;48.568;7.870;2023-06-19T12:10:33;3.30;;;2.97;;
7116;SDS011;3600;48.568;7.870;2023-06-19T12:13:00;3.38;;;3.17;;
7116;SDS011;3600;48.568;7.870;2023-06-19T12:15:27;3.20;;;3.00;;
7116;SDS011;3600;48.568;7.870;2023-06-19T12:17:54;3.28;;;3.05;;
7116;SDS011;3600;48.568;7.870;2023-06-19T12:20:24;3.38;;;3.08;;
7116;SDS011;3600;48.568;7.870;2023-06-19T12:22:52;3.58;;;3.28;;
7116;SDS011;3600;48.568;7.870;2023-06-19T12:25:19;3.78;;;3.47;;
7116;SDS011;3600;48.568;7.870;2023-06-19T12:27:46;3.13;;;2.72;;
7116;SDS011;3600;48.568;7.870;2023-06-19T12:30:20;3.30;;;3.10;;
7116;SDS011;3600;48.568;7.870;2023-06-19T12:32:47;3.20;;;3.00;;
7116;SDS011;3600;48.568;7.870;2023-06-19T12:35:16;2.90;;;2.70;;
7116;SDS011;3600;48.568;7.870;2023-06-19T12:37:44;2.95;;;2.75;;
7116;SDS011;3600;48.568;7.870;2023-06-19T12:40:12;3.33;;;3.13;;
7116;SDS011;3600;48.568;7.870;2023-06-19T12:42:38;3.20;;;2.85;;
7116;SDS011;3600;48.568;7.870;2023-06-19T12:45:06;3.45;;;3.15;;
7116;SDS011;3600;48.568;7.870;2023-06-19T12:47:33;3.58;;;3.28;;
7116;SDS011;3600;48.568;7.870;2023-06-19T12:50:00;3.42;;;3.20;;
7116;SDS011;3600;48.568;7.870;2023-06-19T12:52:26;3.50;;;3.30;;
7116;SDS011;3600;48.568;7.870;2023-06-19T12:54:53;3.38;;;3.17;;
7116;SDS011;3600;48.568;7.870;2023-06-19T12:57:20;3.47;;;3.17;;
7116;SDS011;3600;48.568;7.870;2023-06-19T12:59:47;3.58;;;3.30;;
7116;SDS011;3600;48.568;7.870;2023-06-19T13:02:14;3.67;;;3.47;;
7116;SDS011;3600;48.568;7.870;2023-06-19T13:04:41;3.33;;;3.13;;
7116;SDS011;3600;48.568;7.870;2023-06-19T13:07:08;3.85;;;3.55;;
7116;SDS011;3600;48.568;7.870;2023-06-19T13:09:35;3.83;;;3.38;;
7116;SDS011;3600;48.568;7.870;2023-06-19T13:12:02;3.50;;;3.20;;
7116;SDS011;3600;48.568;7.870;2023-06-19T13:14:29;4.50;;;2.83;;
7116;SDS011;3600;48.568;7.870;2023-06-19T13:16:58;3.63;;;3.33;;
7116;SDS011;3600;48.568;7.870;2023-06-19T13:19:25;4.22;;;3.50;;
7116;SDS011;3600;48.568;7.870;2023-06-19T13:21:52;3.63;;;3.42;;
7116;SDS011;3600;48.568;7.870;2023-06-19T13:24:19;3.65;;;3.28;;
7116;SDS011;3600;48.568;7.870;2023-06-19T13:26:46;3.33;;;3.13;;
7116;SDS011;3600;48.568;7.870;2023-06-19T13:29:12;3.40;;;3.10;;
7116;SDS011;3600;48.568;7.870;2023-06-19T13:31:39;3.45;;;3.20;;
7116;SDS011;3600;48.568;7.870;2023-06-19T13:34:07;3.80;;;3.50;;
7116;SDS011;3600;48.568;7.870;2023-06-19T13:36:33;3.55;;;3.35;;
7116;SDS011;3600;48.568;7.870;2023-06-19T13:39:00;3.38;;;3.10;;
7116;SDS011;3600;48.568;7.870;2023-06-19T13:41:27;3.80;;;3.50;;
7116;SDS011;3600;48.568;7.870;2023-06-19T13:43:57;3.40;;;3.20;;
7116;SDS011;3600;48.568;7.870;2023-06-19T13:46:23;3.97;;;3.47;;
7116;SDS011;3600;48.568;7.870;2023-06-19T13:48:50;3.47;;;3.28;;
7116;SDS011;3600;48.568;7.870;2023-06-19T13:51:18;4.05;;;3.75;;
7116;SDS011;3600;48.568;7.870;2023-06-19T13:53:46;3.60;;;3.30;;
7116;SDS011;3600;48.568;7.870;2023-06-19T13:56:14;3.55;;;3.25;;
7116;SDS011;3600;48.568;7.870;2023-06-19T13:58:42;4.03;;;3.67;;
7116;SDS011;3600;48.568;7.870;2023-06-19T14:01:09;3.70;;;3.50;;
7116;SDS011;3600;48.568;7.870;2023-06-19T14:03:36;4.15;;;3.85;;
7116;SDS011;3600;48.568;7.870;2023-06-19T14:06:05;4.10;;;3.80;;
7116;SDS011;3600;48.568;7.870;2023-06-19T14:08:33;4.10;;;3.80;;
7116;SDS011;3600;48.568;7.870;2023-06-19T14:11:00;3.80;;;3.55;;
7116;SDS011;3600;48.568;7.870;2023-06-19T14:13:27;4.05;;;3.63;;
7116;SDS011;3600;48.568;7.870;2023-06-19T14:15:54;4.18;;;3.72;;
7116;SDS011;3600;48.568;7.870;2023-06-19T14:18:20;4.03;;;3.72;;
7116;SDS011;3600;48.568;7.870;2023-06-19T14:20:47;3.97;;;3.70;;
7116;SDS011;3600;48.568;7.870;2023-06-19T14:23:14;3.80;;;3.50;;
7116;SDS011;3600;48.568;7.870;2023-06-19T14:25:41;3.80;;;3.50;;
7116;SDS011;3600;48.568;7.870;2023-06-19T14:28:10;4.18;;;3.60;;
7116;SDS011;3600;48.568;7.870;2023-06-19T14:30:37;3.60;;;3.40;;
7116;SDS011;3600;48.568;7.870;2023-06-19T14:33:05;3.78;;;3.47;;
7116;SDS011;3600;48.568;7.870;2023-06-19T14:35:32;3.90;;;3.60;;
7116;SDS011;3600;48.568;7.870;2023-06-19T14:37:58;3.78;;;3.53;;
7116;SDS011;3600;48.568;7.870;2023-06-19T14:40:25;3.85;;;3.60;;
7116;SDS011;3600;48.568;7.870;2023-06-19T14:42:52;5.78;;;3.60;;
7116;SDS011;3600;48.568;7.870;2023-06-19T14:45:19;4.28;;;3.80;;
7116;SDS011;3600;48.568;7.870;2023-06-19T14:47:46;3.90;;;3.70;;
7116;SDS011;3600;48.568;7.870;2023-06-19T14:50:13;4.25;;;3.95;;
7116;SDS011;3600;48.568;7.870;2023-06-19T14:52:40;3.90;;;3.70;;
7116;SDS011;3600;48.568;7.870;2023-06-19T14:55:07;4.03;;;3.72;;
7116;SDS011;3600;48.568;7.870;2023-06-19T14:57:35;4.07;;;3.78;;
7116;SDS011;3600;48.568;7.870;2023-06-19T15:00:02;4.13;;;3.80;;
7116;SDS011;3600;48.568;7.870;2023-06-19T15:02:31;3.90;;;3.60;;
7116;SDS011;3600;48.568;7.870;2023-06-19T15:04:58;4.30;;;4.00;;
7116;SDS011;3600;48.568;7.870;2023-06-19T15:07:32;4.50;;;3.92;;
7116;SDS011;3600;48.568;7.870;2023-06-19T15:09:59;4.18;;;3.78;;
7116;SDS011;3600;48.568;7.870;2023-06-19T15:12:26;3.58;;;3.38;;
7116;SDS011;3600;48.568;7.870;2023-06-19T15:14:52;4.13;;;3.83;;
7116;SDS011;3600;48.568;7.870;2023-06-19T15:17:19;5.00;;;3.88;;
7116;SDS011;3600;48.568;7.870;2023-06-19T15:19:46;5.55;;;3.90;;
7116;SDS011;3600;48.568;7.870;2023-06-19T15:22:13;4.32;;;4.03;;
7116;SDS011;3600;48.568;7.870;2023-06-19T15:24:40;4.50;;;4.10;;
7116;SDS011;3600;48.568;7.870;2023-06-19T15:27:07;4.28;;;3.78;;